sensor_id;sensor_type;location;lat;lon;timestamp;P1;durP1;ratioP1;P2;durP2;ratioP2
52668;SDS011;59898;52.786;6.892;2023-03-01T00:03:04;22.50;;;17.25;;
52668;SDS011;59898;52.786;6.892;2023-03-01T00:06:25;21.25;;;16.17;;
52668;SDS011;59898;52.786;6.892;2023-03-01T00:09:46;20.27;;;16.38;;
52668;SDS011;59898;52.786;6.892;2023-03-01T00:13:07;21.35;;;16.20;;
52668;SDS011;59898;52.786;6.892;2023-03-01T00:16:29;21.33;;;16.48;;
52668;SDS011;59898;52.786;6.892;2023-03-01T00:19:54;22.58;;;17.20;;
52668;SDS011;59898;52.786;6.892;2023-03-01T00:23:15;19.92;;;17.80;;
52668;SDS011;59898;52.786;6.892;2023-03-01T00:26:35;24.55;;;17.77;;
52668;SDS011;59898;52.786;6.892;2023-03-01T00:29:57;21.23;;;16.88;;
52668;SDS011;59898;52.786;6.892;2023-03-01T00:33:17;21.45;;;18.08;;
52668;SDS011;59898;52.786;6.892;2023-03-01T00:36:39;24.23;;;19.67;;
52668;SDS011;59898;52.786;6.892;2023-03-01T00:39:59;23.45;;;19.27;;
52668;SDS011;59898;52.786;6.892;2023-03-01T00:43:20;26.45;;;19.98;;
52668;SDS011;59898;52.786;6.892;2023-03-01T00:46:41;21.02;;;18.45;;
52668;SDS011;59898;52.786;6.892;2023-03-01T00:50:02;21.88;;;18.90;;
52668;SDS011;59898;52.786;6.892;2023-03-01T00:53:23;25.13;;;20.58;;
52668;SDS011;59898;52.786;6.892;2023-03-01T00:56:43;24.95;;;19.08;;
52668;SDS011;59898;52.786;6.892;2023-03-01T01:00:05;24.15;;;20.73;;
52668;SDS011;59898;52.786;6.892;2023-03-01T01:03:26;27.88;;;21.08;;
52668;SDS011;59898;52.786;6.892;2023-03-01T01:06:47;24.27;;;20.40;;
52668;SDS011;59898;52.786;6.892;2023-03-01T01:10:08;22.20;;;19.77;;
52668;SDS011;59898;52.786;6.892;2023-03-01T01:13:32;23.65;;;17.42;;
52668;SDS011;59898;52.786;6.892;2023-03-01T01:16:53;23.90;;;18.80;;
52668;SDS011;59898;52.786;6.892;2023-03-01T01:20:14;20.83;;;18.27;;
52668;SDS011;59898;52.786;6.892;2023-03-01T01:23:35;20.13;;;17.02;;
52668;SDS011;59898;52.786;6.892;2023-03-01T01:26:57;23.37;;;17.83;;
52668;SDS011;59898;52.786;6.892;2023-03-01T01:30:18;21.77;;;18.23;;
52668;SDS011;59898;52.786;6.892;2023-03-01T01:33:38;22.58;;;18.65;;
52668;SDS011;59898;52.786;6.892;2023-03-01T01:36:59;23.15;;;18.65;;
52668;SDS011;59898;52.786;6.892;2023-03-01T01:40:22;19.98;;;17.27;;
52668;SDS011;59898;52.786;6.892;2023-03-01T01:43:44;23.95;;;18.50;;
52668;SDS011;59898;52.786;6.892;2023-03-01T01:47:12;26.38;;;18.95;;
52668;SDS011;59898;52.786;6.892;2023-03-01T01:50:38;25.20;;;18.42;;
52668;SDS011;59898;52.786;6.892;2023-03-01T01:54:00;23.00;;;18.63;;
52668;SDS011;59898;52.786;6.892;2023-03-01T01:57:23;23.65;;;17.83;;
52668;SDS011;59898;52.786;6.892;2023-03-01T02:00:49;22.25;;;16.55;;
52668;SDS011;59898;52.786;6.892;2023-03-01T02:04:10;21.85;;;16.73;;
52668;SDS011;59898;52.786;6.892;2023-03-01T02:07:30;23.30;;;17.40;;
52668;SDS011;59898;52.786;6.892;2023-03-01T02:10:51;18.95;;;15.55;;
52668;SDS011;59898;52.786;6.892;2023-03-01T02:14:14;21.73;;;19.15;;
52668;SDS011;59898;52.786;6.892;2023-03-01T02:17:35;22.20;;;17.40;;
52668;SDS011;59898;52.786;6.892;2023-03-01T02:24:32;23.50;;;17.05;;
52668;SDS011;59898;52.786;6.892;2023-03-01T02:31:38;24.42;;;19.63;;
52668;SDS011;59898;52.786;6.892;2023-03-01T02:35:01;26.25;;;19.63;;
52668;SDS011;59898;52.786;6.892;2023-03-01T02:38:25;21.90;;;17.95;;
52668;SDS011;59898;52.786;6.892;2023-03-01T02:41:49;24.13;;;19.67;;
52668;SDS011;59898;52.786;6.892;2023-03-01T02:45:12;21.55;;;18.38;;
52668;SDS011;59898;52.786;6.892;2023-03-01T02:55:53;26.95;;;24.10;;
52668;SDS011;59898;52.786;6.892;2023-03-01T02:59:14;22.30;;;19.20;;
52668;SDS011;59898;52.786;6.892;2023-03-01T03:02:37;22.48;;;17.92;;
52668;SDS011;59898;52.786;6.892;2023-03-01T03:05:58;20.45;;;17.52;;
52668;SDS011;59898;52.786;6.892;2023-03-01T03:09:19;26.95;;;20.40;;
52668;SDS011;59898;52.786;6.892;2023-03-01T03:12:40;26.45;;;21.52;;
52668;SDS011;59898;52.786;6.892;2023-03-01T03:16:01;27.65;;;22.15;;
52668;SDS011;59898;52.786;6.892;2023-03-01T03:19:23;25.90;;;19.70;;
52668;SDS011;59898;52.786;6.892;2023-03-01T03:22:45;22.02;;;19.17;;
52668;SDS011;59898;52.786;6.892;2023-03-01T03:26:07;24.55;;;20.45;;
52668;SDS011;59898;52.786;6.892;2023-03-01T03:29:27;24.08;;;18.55;;
52668;SDS011;59898;52.786;6.892;2023-03-01T03:32:48;23.40;;;19.90;;
52668;SDS011;59898;52.786;6.892;2023-03-01T03:36:16;26.65;;;20.58;;
52668;SDS011;59898;52.786;6.892;2023-03-01T03:39:41;21.25;;;18.60;;
52668;SDS011;59898;52.786;6.892;2023-03-01T03:43:05;24.60;;;17.58;;
52668;SDS011;59898;52.786;6.892;2023-03-01T03:46:28;22.95;;;19.02;;
52668;SDS011;59898;52.786;6.892;2023-03-01T03:49:49;23.35;;;18.77;;
52668;SDS011;59898;52.786;6.892;2023-03-01T03:53:10;26.90;;;20.77;;
52668;SDS011;59898;52.786;6.892;2023-03-01T03:56:32;25.60;;;20.30;;
52668;SDS011;59898;52.786;6.892;2023-03-01T03:59:52;25.23;;;21.50;;
52668;SDS011;59898;52.786;6.892;2023-03-01T04:03:13;26.77;;;20.52;;
52668;SDS011;59898;52.786;6.892;2023-03-01T04:06:36;24.63;;;20.73;;
52668;SDS011;59898;52.786;6.892;2023-03-01T04:09:56;25.27;;;19.70;;
52668;SDS011;59898;52.786;6.892;2023-03-01T04:13:19;24.15;;;20.85;;
52668;SDS011;59898;52.786;6.892;2023-03-01T04:16:41;26.02;;;21.33;;
52668;SDS011;59898;52.786;6.892;2023-03-01T04:20:02;26.58;;;20.85;;
52668;SDS011;59898;52.786;6.892;2023-03-01T04:23:25;25.40;;;19.08;;
52668;SDS011;59898;52.786;6.892;2023-03-01T04:26:46;25.80;;;19.55;;
52668;SDS011;59898;52.786;6.892;2023-03-01T04:30:07;25.17;;;20.65;;
52668;SDS011;59898;52.786;6.892;2023-03-01T04:33:28;24.13;;;19.73;;
52668;SDS011;59898;52.786;6.892;2023-03-01T04:36:49;22.85;;;18.05;;
52668;SDS011;59898;52.786;6.892;2023-03-01T04:40:10;27.38;;;18.10;;
52668;SDS011;59898;52.786;6.892;2023-03-01T04:43:35;24.58;;;19.40;;
52668;SDS011;59898;52.786;6.892;2023-03-01T04:46:57;23.42;;;20.85;;
52668;SDS011;59898;52.786;6.892;2023-03-01T04:50:18;28.95;;;18.67;;
52668;SDS011;59898;52.786;6.892;2023-03-01T04:53:40;28.63;;;20.75;;
52668;SDS011;59898;52.786;6.892;2023-03-01T04:57:02;23.58;;;18.33;;
52668;SDS011;59898;52.786;6.892;2023-03-01T05:00:23;22.70;;;20.33;;
52668;SDS011;59898;52.786;6.892;2023-03-01T05:03:44;30.25;;;23.27;;
52668;SDS011;59898;52.786;6.892;2023-03-01T05:07:10;22.05;;;19.27;;
52668;SDS011;59898;52.786;6.892;2023-03-01T05:10:34;23.88;;;21.17;;
52668;SDS011;59898;52.786;6.892;2023-03-01T05:13:56;27.33;;;23.25;;
52668;SDS011;59898;52.786;6.892;2023-03-01T05:17:16;25.50;;;21.23;;
52668;SDS011;59898;52.786;6.892;2023-03-01T05:20:37;25.67;;;20.55;;
52668;SDS011;59898;52.786;6.892;2023-03-01T05:23:58;27.17;;;19.95;;
52668;SDS011;59898;52.786;6.892;2023-03-01T05:27:18;25.02;;;19.85;;
52668;SDS011;59898;52.786;6.892;2023-03-01T05:30:42;24.00;;;20.65;;
52668;SDS011;59898;52.786;6.892;2023-03-01T05:34:03;28.02;;;22.15;;
52668;SDS011;59898;52.786;6.892;2023-03-01T05:37:24;25.88;;;21.85;;
52668;SDS011;59898;52.786;6.892;2023-03-01T05:40:46;32.33;;;24.33;;
52668;SDS011;59898;52.786;6.892;2023-03-01T05:44:07;30.53;;;24.80;;
52668;SDS011;59898;52.786;6.892;2023-03-01T05:47:28;33.30;;;25.63;;
52668;SDS011;59898;52.786;6.892;2023-03-01T05:50:49;32.00;;;25.90;;
52668;SDS011;59898;52.786;6.892;2023-03-01T05:54:09;36.08;;;27.48;;
52668;SDS011;59898;52.786;6.892;2023-03-01T05:57:30;27.92;;;23.65;;
52668;SDS011;59898;52.786;6.892;2023-03-01T06:00:51;31.80;;;25.40;;
52668;SDS011;59898;52.786;6.892;2023-03-01T06:04:11;30.63;;;24.50;;
52668;SDS011;59898;52.786;6.892;2023-03-01T06:07:32;31.67;;;24.60;;
52668;SDS011;59898;52.786;6.892;2023-03-01T06:10:53;32.72;;;25.42;;
52668;SDS011;59898;52.786;6.892;2023-03-01T06:14:14;32.08;;;25.02;;
52668;SDS011;59898;52.786;6.892;2023-03-01T06:17:35;34.72;;;27.10;;
52668;SDS011;59898;52.786;6.892;2023-03-01T06:20:57;34.22;;;25.42;;
52668;SDS011;59898;52.786;6.892;2023-03-01T06:24:18;34.08;;;28.63;;
52668;SDS011;59898;52.786;6.892;2023-03-01T06:27:39;32.78;;;28.88;;
52668;SDS011;59898;52.786;6.892;2023-03-01T06:30:59;28.70;;;25.60;;
52668;SDS011;59898;52.786;6.892;2023-03-01T06:34:20;32.72;;;27.42;;
52668;SDS011;59898;52.786;6.892;2023-03-01T06:37:41;36.90;;;26.35;;
52668;SDS011;59898;52.786;6.892;2023-03-01T06:41:02;33.42;;;26.38;;
52668;SDS011;59898;52.786;6.892;2023-03-01T06:44:23;29.30;;;26.13;;
52668;SDS011;59898;52.786;6.892;2023-03-01T06:47:44;41.58;;;28.88;;
52668;SDS011;59898;52.786;6.892;2023-03-01T06:51:05;33.40;;;27.60;;
52668;SDS011;59898;52.786;6.892;2023-03-01T06:54:25;29.20;;;22.85;;
52668;SDS011;59898;52.786;6.892;2023-03-01T06:57:46;28.38;;;21.52;;
52668;SDS011;59898;52.786;6.892;2023-03-01T07:01:07;25.08;;;19.70;;
52668;SDS011;59898;52.786;6.892;2023-03-01T07:04:28;26.33;;;19.10;;
52668;SDS011;59898;52.786;6.892;2023-03-01T07:07:50;22.80;;;17.45;;
52668;SDS011;59898;52.786;6.892;2023-03-01T07:11:11;27.55;;;17.85;;
52668;SDS011;59898;52.786;6.892;2023-03-01T07:14:31;23.65;;;16.95;;
52668;SDS011;59898;52.786;6.892;2023-03-01T07:17:52;19.45;;;16.48;;
52668;SDS011;59898;52.786;6.892;2023-03-01T07:21:13;21.00;;;17.23;;
52668;SDS011;59898;52.786;6.892;2023-03-01T07:24:34;30.05;;;19.13;;
52668;SDS011;59898;52.786;6.892;2023-03-01T07:27:55;25.73;;;18.13;;
52668;SDS011;59898;52.786;6.892;2023-03-01T07:31:16;26.35;;;16.98;;
52668;SDS011;59898;52.786;6.892;2023-03-01T07:34:36;25.77;;;17.90;;
52668;SDS011;59898;52.786;6.892;2023-03-01T07:37:57;22.83;;;17.83;;
52668;SDS011;59898;52.786;6.892;2023-03-01T07:41:18;20.05;;;15.65;;
52668;SDS011;59898;52.786;6.892;2023-03-01T07:44:38;19.00;;;16.25;;
52668;SDS011;59898;52.786;6.892;2023-03-01T07:47:59;20.48;;;16.88;;
52668;SDS011;59898;52.786;6.892;2023-03-01T07:51:20;16.88;;;14.43;;
52668;SDS011;59898;52.786;6.892;2023-03-01T07:54:42;18.88;;;15.65;;
52668;SDS011;59898;52.786;6.892;2023-03-01T07:58:04;20.77;;;15.35;;
52668;SDS011;59898;52.786;6.892;2023-03-01T08:01:25;18.95;;;15.35;;
52668;SDS011;59898;52.786;6.892;2023-03-01T08:04:45;19.45;;;14.02;;
52668;SDS011;59898;52.786;6.892;2023-03-01T08:08:06;25.02;;;15.80;;
52668;SDS011;59898;52.786;6.892;2023-03-01T08:11:27;21.52;;;15.13;;
52668;SDS011;59898;52.786;6.892;2023-03-01T08:14:48;19.52;;;14.88;;
52668;SDS011;59898;52.786;6.892;2023-03-01T08:18:09;20.77;;;16.00;;
52668;SDS011;59898;52.786;6.892;2023-03-01T08:21:30;23.00;;;15.07;;
52668;SDS011;59898;52.786;6.892;2023-03-01T08:24:50;20.42;;;14.32;;
52668;SDS011;59898;52.786;6.892;2023-03-01T08:28:11;18.38;;;12.40;;
52668;SDS011;59898;52.786;6.892;2023-03-01T08:31:36;16.02;;;13.30;;
52668;SDS011;59898;52.786;6.892;2023-03-01T08:34:59;17.95;;;12.35;;
52668;SDS011;59898;52.786;6.892;2023-03-01T08:38:20;14.93;;;10.15;;
52668;SDS011;59898;52.786;6.892;2023-03-01T08:41:41;11.88;;;9.13;;
52668;SDS011;59898;52.786;6.892;2023-03-01T08:45:05;11.65;;;9.13;;
52668;SDS011;59898;52.786;6.892;2023-03-01T08:48:27;12.85;;;8.82;;
52668;SDS011;59898;52.786;6.892;2023-03-01T08:51:48;10.23;;;8.35;;
52668;SDS011;59898;52.786;6.892;2023-03-01T08:55:09;9.60;;;7.45;;
52668;SDS011;59898;52.786;6.892;2023-03-01T08:58:30;10.45;;;7.32;;
52668;SDS011;59898;52.786;6.892;2023-03-01T09:01:51;14.52;;;8.05;;
52668;SDS011;59898;52.786;6.892;2023-03-01T09:05:11;10.52;;;7.35;;
52668;SDS011;59898;52.786;6.892;2023-03-01T09:08:34;8.40;;;5.75;;
52668;SDS011;59898;52.786;6.892;2023-03-01T09:11:55;9.13;;;6.43;;
52668;SDS011;59898;52.786;6.892;2023-03-01T09:15:17;12.55;;;10.32;;
52668;SDS011;59898;52.786;6.892;2023-03-01T09:18:37;29.85;;;20.25;;
52668;SDS011;59898;52.786;6.892;2023-03-01T09:21:58;6.55;;;4.75;;
52668;SDS011;59898;52.786;6.892;2023-03-01T09:25:19;7.10;;;4.13;;
52668;SDS011;59898;52.786;6.892;2023-03-01T09:28:39;7.18;;;4.63;;
52668;SDS011;59898;52.786;6.892;2023-03-01T09:32:04;6.90;;;4.63;;
52668;SDS011;59898;52.786;6.892;2023-03-01T09:35:25;6.53;;;4.47;;
52668;SDS011;59898;52.786;6.892;2023-03-01T09:38:46;7.03;;;4.50;;
52668;SDS011;59898;52.786;6.892;2023-03-01T09:42:11;6.20;;;4.72;;
52668;SDS011;59898;52.786;6.892;2023-03-01T09:45:33;6.15;;;4.18;;
52668;SDS011;59898;52.786;6.892;2023-03-01T09:48:56;6.47;;;3.08;;
52668;SDS011;59898;52.786;6.892;2023-03-01T09:56:00;6.47;;;4.28;;
52668;SDS011;59898;52.786;6.892;2023-03-01T10:06:21;6.38;;;3.20;;
52668;SDS011;59898;52.786;6.892;2023-03-01T10:09:45;6.20;;;4.15;;
52668;SDS011;59898;52.786;6.892;2023-03-01T10:13:13;8.70;;;5.05;;
52668;SDS011;59898;52.786;6.892;2023-03-01T10:16:46;6.68;;;4.38;;
52668;SDS011;59898;52.786;6.892;2023-03-01T10:20:24;7.35;;;4.28;;
52668;SDS011;59898;52.786;6.892;2023-03-01T10:23:47;4.90;;;4.03;;
52668;SDS011;59898;52.786;6.892;2023-03-01T10:30:50;7.45;;;5.45;;
52668;SDS011;59898;52.786;6.892;2023-03-01T10:34:16;6.15;;;4.05;;
52668;SDS011;59898;52.786;6.892;2023-03-01T10:37:37;10.50;;;4.65;;
52668;SDS011;59898;52.786;6.892;2023-03-01T10:41:18;6.13;;;4.57;;
52668;SDS011;59898;52.786;6.892;2023-03-01T10:44:47;9.23;;;5.82;;
52668;SDS011;59898;52.786;6.892;2023-03-01T10:48:16;7.15;;;5.30;;
52668;SDS011;59898;52.786;6.892;2023-03-01T10:51:39;6.93;;;5.05;;
52668;SDS011;59898;52.786;6.892;2023-03-01T10:55:04;7.20;;;5.63;;
52668;SDS011;59898;52.786;6.892;2023-03-01T10:58:37;7.55;;;5.05;;
52668;SDS011;59898;52.786;6.892;2023-03-01T11:02:07;8.05;;;5.05;;
52668;SDS011;59898;52.786;6.892;2023-03-01T11:09:21;6.68;;;4.40;;
52668;SDS011;59898;52.786;6.892;2023-03-01T11:12:43;8.57;;;4.53;;
52668;SDS011;59898;52.786;6.892;2023-03-01T11:16:06;6.43;;;3.95;;
52668;SDS011;59898;52.786;6.892;2023-03-01T11:19:29;7.30;;;5.05;;
52668;SDS011;59898;52.786;6.892;2023-03-01T11:22:52;7.95;;;4.78;;
52668;SDS011;59898;52.786;6.892;2023-03-01T11:26:14;7.22;;;4.97;;
52668;SDS011;59898;52.786;6.892;2023-03-01T11:29:41;6.55;;;4.82;;
52668;SDS011;59898;52.786;6.892;2023-03-01T11:33:13;7.78;;;5.32;;
52668;SDS011;59898;52.786;6.892;2023-03-01T11:36:46;7.88;;;5.22;;
52668;SDS011;59898;52.786;6.892;2023-03-01T11:40:19;7.85;;;5.97;;
52668;SDS011;59898;52.786;6.892;2023-03-01T11:43:57;6.45;;;4.40;;
52668;SDS011;59898;52.786;6.892;2023-03-01T11:51:19;8.13;;;5.53;;
52668;SDS011;59898;52.786;6.892;2023-03-01T11:58:26;10.55;;;5.43;;
52668;SDS011;59898;52.786;6.892;2023-03-01T12:02:07;10.00;;;6.45;;
52668;SDS011;59898;52.786;6.892;2023-03-01T12:28:51;11.55;;;6.07;;
52668;SDS011;59898;52.786;6.892;2023-03-01T12:32:24;6.20;;;5.15;;
52668;SDS011;59898;52.786;6.892;2023-03-01T12:39:33;9.27;;;5.95;;
52668;SDS011;59898;52.786;6.892;2023-03-01T12:43:17;10.55;;;6.03;;
52668;SDS011;59898;52.786;6.892;2023-03-01T12:50:20;10.07;;;7.32;;
52668;SDS011;59898;52.786;6.892;2023-03-01T12:53:49;12.20;;;7.10;;
52668;SDS011;59898;52.786;6.892;2023-03-01T12:57:17;11.93;;;7.82;;
52668;SDS011;59898;52.786;6.892;2023-03-01T13:00:54;9.70;;;6.45;;
52668;SDS011;59898;52.786;6.892;2023-03-01T13:08:28;11.27;;;6.22;;
52668;SDS011;59898;52.786;6.892;2023-03-01T13:11:53;9.70;;;7.95;;
52668;SDS011;59898;52.786;6.892;2023-03-01T13:18:43;10.30;;;6.72;;
52668;SDS011;59898;52.786;6.892;2023-03-01T13:29:25;12.57;;;8.20;;
52668;SDS011;59898;52.786;6.892;2023-03-01T13:32:47;12.73;;;8.05;;
52668;SDS011;59898;52.786;6.892;2023-03-01T13:36:08;10.45;;;7.20;;
52668;SDS011;59898;52.786;6.892;2023-03-01T13:39:38;14.00;;;8.40;;
52668;SDS011;59898;52.786;6.892;2023-03-01T13:43:16;11.88;;;8.70;;
52668;SDS011;59898;52.786;6.892;2023-03-01T13:46:58;12.23;;;8.50;;
52668;SDS011;59898;52.786;6.892;2023-03-01T13:50:25;11.95;;;8.35;;
52668;SDS011;59898;52.786;6.892;2023-03-01T13:53:49;15.90;;;10.90;;
52668;SDS011;59898;52.786;6.892;2023-03-01T13:57:12;16.73;;;10.38;;
52668;SDS011;59898;52.786;6.892;2023-03-01T14:00:41;12.27;;;9.40;;
52668;SDS011;59898;52.786;6.892;2023-03-01T14:04:03;10.80;;;8.07;;
52668;SDS011;59898;52.786;6.892;2023-03-01T14:07:38;11.02;;;8.43;;
52668;SDS011;59898;52.786;6.892;2023-03-01T14:14:55;12.23;;;8.30;;
52668;SDS011;59898;52.786;6.892;2023-03-01T14:18:21;11.98;;;8.75;;
52668;SDS011;59898;52.786;6.892;2023-03-01T14:25:48;14.63;;;8.90;;
52668;SDS011;59898;52.786;6.892;2023-03-01T14:29:26;12.20;;;8.63;;
52668;SDS011;59898;52.786;6.892;2023-03-01T14:33:02;13.45;;;9.23;;
52668;SDS011;59898;52.786;6.892;2023-03-01T14:36:27;10.75;;;7.18;;
52668;SDS011;59898;52.786;6.892;2023-03-01T14:39:49;13.93;;;9.40;;
52668;SDS011;59898;52.786;6.892;2023-03-01T14:43:12;13.27;;;9.10;;
52668;SDS011;59898;52.786;6.892;2023-03-01T14:46:41;12.20;;;8.50;;
52668;SDS011;59898;52.786;6.892;2023-03-01T14:50:22;12.10;;;7.93;;
52668;SDS011;59898;52.786;6.892;2023-03-01T14:53:47;11.60;;;8.32;;
52668;SDS011;59898;52.786;6.892;2023-03-01T14:57:13;11.63;;;9.00;;
52668;SDS011;59898;52.786;6.892;2023-03-01T15:00:46;11.88;;;8.13;;
52668;SDS011;59898;52.786;6.892;2023-03-01T15:04:11;19.67;;;10.40;;
52668;SDS011;59898;52.786;6.892;2023-03-01T15:11:17;11.90;;;7.78;;
52668;SDS011;59898;52.786;6.892;2023-03-01T15:14:44;11.85;;;8.18;;
52668;SDS011;59898;52.786;6.892;2023-03-01T15:18:16;11.80;;;8.15;;
52668;SDS011;59898;52.786;6.892;2023-03-01T15:21:42;11.70;;;7.93;;
52668;SDS011;59898;52.786;6.892;2023-03-01T15:25:13;11.13;;;8.65;;
52668;SDS011;59898;52.786;6.892;2023-03-01T15:28:37;11.55;;;7.88;;
52668;SDS011;59898;52.786;6.892;2023-03-01T15:32:29;12.82;;;8.20;;
52668;SDS011;59898;52.786;6.892;2023-03-01T15:35:52;10.15;;;8.00;;
52668;SDS011;59898;52.786;6.892;2023-03-01T15:43:43;11.45;;;8.05;;
52668;SDS011;59898;52.786;6.892;2023-03-01T15:47:28;36.50;;;23.40;;
52668;SDS011;59898;52.786;6.892;2023-03-01T15:50:58;13.27;;;10.07;;
52668;SDS011;59898;52.786;6.892;2023-03-01T15:54:20;11.15;;;9.07;;
52668;SDS011;59898;52.786;6.892;2023-03-01T15:57:43;12.15;;;9.32;;
52668;SDS011;59898;52.786;6.892;2023-03-01T16:01:08;13.07;;;8.48;;
52668;SDS011;59898;52.786;6.892;2023-03-01T16:04:32;15.00;;;9.85;;
52668;SDS011;59898;52.786;6.892;2023-03-01T16:07:53;13.80;;;9.40;;
52668;SDS011;59898;52.786;6.892;2023-03-01T16:11:15;12.73;;;9.02;;
52668;SDS011;59898;52.786;6.892;2023-03-01T16:14:38;12.85;;;8.98;;
52668;SDS011;59898;52.786;6.892;2023-03-01T16:17:58;13.55;;;9.32;;
52668;SDS011;59898;52.786;6.892;2023-03-01T16:21:23;14.30;;;9.70;;
52668;SDS011;59898;52.786;6.892;2023-03-01T16:24:44;9.73;;;8.07;;
52668;SDS011;59898;52.786;6.892;2023-03-01T16:28:05;11.38;;;9.57;;
52668;SDS011;59898;52.786;6.892;2023-03-01T16:34:49;11.95;;;10.02;;
52668;SDS011;59898;52.786;6.892;2023-03-01T16:38:10;13.35;;;8.65;;
52668;SDS011;59898;52.786;6.892;2023-03-01T16:41:31;15.30;;;10.30;;
52668;SDS011;59898;52.786;6.892;2023-03-01T16:44:55;13.10;;;9.70;;
52668;SDS011;59898;52.786;6.892;2023-03-01T16:48:17;13.32;;;9.70;;
52668;SDS011;59898;52.786;6.892;2023-03-01T16:51:37;18.50;;;11.55;;
52668;SDS011;59898;52.786;6.892;2023-03-01T16:54:58;14.98;;;10.90;;
52668;SDS011;59898;52.786;6.892;2023-03-01T16:58:19;13.52;;;9.98;;
52668;SDS011;59898;52.786;6.892;2023-03-01T17:01:40;14.10;;;10.15;;
52668;SDS011;59898;52.786;6.892;2023-03-01T17:05:01;14.32;;;11.35;;
52668;SDS011;59898;52.786;6.892;2023-03-01T17:08:22;14.75;;;11.85;;
52668;SDS011;59898;52.786;6.892;2023-03-01T17:11:43;19.65;;;11.40;;
52668;SDS011;59898;52.786;6.892;2023-03-01T17:15:04;19.88;;;12.10;;
52668;SDS011;59898;52.786;6.892;2023-03-01T17:18:26;16.17;;;12.02;;
52668;SDS011;59898;52.786;6.892;2023-03-01T17:21:47;15.63;;;12.32;;
52668;SDS011;59898;52.786;6.892;2023-03-01T17:25:09;18.10;;;12.60;;
52668;SDS011;59898;52.786;6.892;2023-03-01T17:28:32;25.25;;;15.52;;
52668;SDS011;59898;52.786;6.892;2023-03-01T17:31:54;23.98;;;16.85;;
52668;SDS011;59898;52.786;6.892;2023-03-01T17:35:15;33.85;;;19.27;;
52668;SDS011;59898;52.786;6.892;2023-03-01T17:38:36;21.05;;;15.18;;
52668;SDS011;59898;52.786;6.892;2023-03-01T17:41:57;21.35;;;15.40;;
52668;SDS011;59898;52.786;6.892;2023-03-01T17:45:17;21.45;;;15.68;;
52668;SDS011;59898;52.786;6.892;2023-03-01T17:48:38;23.85;;;15.00;;
52668;SDS011;59898;52.786;6.892;2023-03-01T17:51:59;42.05;;;23.75;;
52668;SDS011;59898;52.786;6.892;2023-03-01T17:55:20;58.72;;;30.15;;
52668;SDS011;59898;52.786;6.892;2023-03-01T17:58:41;45.83;;;26.17;;
52668;SDS011;59898;52.786;6.892;2023-03-01T18:02:01;37.83;;;21.15;;
52668;SDS011;59898;52.786;6.892;2023-03-01T18:05:22;26.38;;;17.90;;
52668;SDS011;59898;52.786;6.892;2023-03-01T18:08:44;30.13;;;19.77;;
52668;SDS011;59898;52.786;6.892;2023-03-01T18:12:05;49.90;;;29.85;;
52668;SDS011;59898;52.786;6.892;2023-03-01T18:15:26;58.72;;;29.23;;
52668;SDS011;59898;52.786;6.892;2023-03-01T18:18:51;51.83;;;28.88;;
52668;SDS011;59898;52.786;6.892;2023-03-01T18:22:13;30.30;;;17.20;;
52668;SDS011;59898;52.786;6.892;2023-03-01T18:25:37;23.67;;;16.50;;
52668;SDS011;59898;52.786;6.892;2023-03-01T18:28:59;23.83;;;16.83;;
52668;SDS011;59898;52.786;6.892;2023-03-01T18:32:22;24.70;;;15.48;;
52668;SDS011;59898;52.786;6.892;2023-03-01T18:35:43;28.70;;;18.77;;
52668;SDS011;59898;52.786;6.892;2023-03-01T18:39:05;35.97;;;20.02;;
52668;SDS011;59898;52.786;6.892;2023-03-01T18:42:26;29.23;;;18.33;;
52668;SDS011;59898;52.786;6.892;2023-03-01T18:45:47;29.00;;;20.13;;
52668;SDS011;59898;52.786;6.892;2023-03-01T18:49:09;27.02;;;19.63;;
52668;SDS011;59898;52.786;6.892;2023-03-01T18:52:30;28.25;;;20.45;;
52668;SDS011;59898;52.786;6.892;2023-03-01T18:55:50;35.15;;;25.25;;
52668;SDS011;59898;52.786;6.892;2023-03-01T18:59:11;31.40;;;21.55;;
52668;SDS011;59898;52.786;6.892;2023-03-01T19:02:32;32.92;;;21.67;;
52668;SDS011;59898;52.786;6.892;2023-03-01T19:05:53;31.05;;;20.88;;
52668;SDS011;59898;52.786;6.892;2023-03-01T19:09:14;33.40;;;23.90;;
52668;SDS011;59898;52.786;6.892;2023-03-01T19:12:35;31.90;;;23.83;;
52668;SDS011;59898;52.786;6.892;2023-03-01T19:16:02;33.00;;;23.52;;
52668;SDS011;59898;52.786;6.892;2023-03-01T19:19:25;31.27;;;22.27;;
52668;SDS011;59898;52.786;6.892;2023-03-01T19:22:46;32.72;;;22.35;;
52668;SDS011;59898;52.786;6.892;2023-03-01T19:26:08;33.42;;;23.05;;
52668;SDS011;59898;52.786;6.892;2023-03-01T19:29:30;33.97;;;23.13;;
52668;SDS011;59898;52.786;6.892;2023-03-01T19:32:52;32.70;;;21.95;;
52668;SDS011;59898;52.786;6.892;2023-03-01T19:36:13;34.40;;;22.85;;
52668;SDS011;59898;52.786;6.892;2023-03-01T19:39:35;30.65;;;21.00;;
52668;SDS011;59898;52.786;6.892;2023-03-01T19:42:56;31.92;;;21.42;;
52668;SDS011;59898;52.786;6.892;2023-03-01T19:46:16;32.10;;;20.90;;
52668;SDS011;59898;52.786;6.892;2023-03-01T19:49:37;33.42;;;22.23;;
52668;SDS011;59898;52.786;6.892;2023-03-01T19:52:58;39.17;;;25.88;;
52668;SDS011;59898;52.786;6.892;2023-03-01T19:56:19;29.50;;;21.80;;
52668;SDS011;59898;52.786;6.892;2023-03-01T19:59:39;29.92;;;20.92;;
52668;SDS011;59898;52.786;6.892;2023-03-01T20:03:00;28.85;;;21.65;;
52668;SDS011;59898;52.786;6.892;2023-03-01T20:06:21;32.53;;;21.95;;
52668;SDS011;59898;52.786;6.892;2023-03-01T20:09:42;40.65;;;21.52;;
52668;SDS011;59898;52.786;6.892;2023-03-01T20:13:04;29.17;;;21.43;;
52668;SDS011;59898;52.786;6.892;2023-03-01T20:16:25;32.25;;;22.63;;
52668;SDS011;59898;52.786;6.892;2023-03-01T20:19:46;37.58;;;24.80;;
52668;SDS011;59898;52.786;6.892;2023-03-01T20:23:07;35.67;;;25.42;;
52668;SDS011;59898;52.786;6.892;2023-03-01T20:26:28;36.80;;;25.90;;
52668;SDS011;59898;52.786;6.892;2023-03-01T20:29:48;40.67;;;25.88;;
52668;SDS011;59898;52.786;6.892;2023-03-01T20:33:09;39.13;;;26.83;;
52668;SDS011;59898;52.786;6.892;2023-03-01T20:36:30;40.47;;;28.10;;
52668;SDS011;59898;52.786;6.892;2023-03-01T20:39:51;39.05;;;26.80;;
52668;SDS011;59898;52.786;6.892;2023-03-01T20:43:11;40.35;;;26.73;;
52668;SDS011;59898;52.786;6.892;2023-03-01T20:46:32;40.45;;;27.35;;
52668;SDS011;59898;52.786;6.892;2023-03-01T20:49:54;42.95;;;29.58;;
52668;SDS011;59898;52.786;6.892;2023-03-01T20:53:17;41.70;;;27.95;;
52668;SDS011;59898;52.786;6.892;2023-03-01T20:56:38;40.42;;;28.35;;
52668;SDS011;59898;52.786;6.892;2023-03-01T20:59:59;45.47;;;29.85;;
52668;SDS011;59898;52.786;6.892;2023-03-01T21:03:20;43.25;;;28.50;;
52668;SDS011;59898;52.786;6.892;2023-03-01T21:06:40;48.33;;;28.65;;
52668;SDS011;59898;52.786;6.892;2023-03-01T21:10:02;39.58;;;28.88;;
52668;SDS011;59898;52.786;6.892;2023-03-01T21:13:23;39.47;;;25.92;;
52668;SDS011;59898;52.786;6.892;2023-03-01T21:16:45;45.00;;;28.30;;
52668;SDS011;59898;52.786;6.892;2023-03-01T21:20:05;47.03;;;28.60;;
52668;SDS011;59898;52.786;6.892;2023-03-01T21:23:27;46.70;;;30.85;;
52668;SDS011;59898;52.786;6.892;2023-03-01T21:26:49;40.97;;;28.37;;
52668;SDS011;59898;52.786;6.892;2023-03-01T21:30:10;40.92;;;27.17;;
52668;SDS011;59898;52.786;6.892;2023-03-01T21:33:31;39.75;;;26.65;;
52668;SDS011;59898;52.786;6.892;2023-03-01T21:36:52;41.17;;;25.73;;
52668;SDS011;59898;52.786;6.892;2023-03-01T21:40:13;37.67;;;25.60;;